Time;durP1;ratioP1;P1;durP2;ratioP2;P2;SDS_P1;SDS_P2;PMS_P1;PMS_P2;Temp;Humidity;BMP_temperature;BMP_pressure;BME280_temperature;BME280_humidity;BME280_pressure;Samples;Min_cycle;Max_cycle;Signal;HPM_P1;HPM_P2
2023/06/21 00:00:42;;;;;;;4.85;3.30;;;;;;;25.87;51.69;101159.94;5034290;28;20029;-66
2023/06/21 00:03:07;;;;;;;5.85;3.42;;;;;;;25.89;51.49;101162.44;5034033;28;20108;-66
2023/06/21 00:05:33;;;;;;;5.28;3.08;;;;;;;25.86;51.44;101158.25;5033972;28;20037;-66
2023/06/21 00:07:59;;;;;;;5.88;3.60;;;;;;;25.88;51.50;101166.94;5032716;28;20040;-65
2023/06/21 00:10:27;;;;;;;6.20;3.50;;;;;;;25.88;51.45;101171.44;5041039;28;20033;-65
2023/06/21 00:12:53;;;;;;;4.22;2.90;;;;;;;25.85;51.50;101172.63;5040484;28;20440;-65
2023/06/21 00:15:19;;;;;;;6.32;3.60;;;;;;;25.86;51.58;101184.94;5033561;28;20040;-65
2023/06/21 00:17:45;;;;;;;4.53;2.90;;;;;;;25.85;51.51;101180.63;5033372;28;20057;-65
2023/06/21 00:20:12;;;;;;;7.10;3.70;;;;;;;25.81;51.53;101181.97;5034089;28;20051;-66
2023/06/21 00:22:38;;;;;;;7.40;3.28;;;;;;;25.85;51.35;101185.97;5034081;28;20112;-65
2023/06/21 00:25:04;;;;;;;5.22;3.35;;;;;;;25.85;51.56;101187.78;5033332;28;20064;-65
2023/06/21 00:27:29;;;;;;;5.20;3.55;;;;;;;25.86;51.54;101181.47;5033382;28;20083;-65
2023/06/21 00:29:55;;;;;;;6.03;3.50;;;;;;;25.84;51.56;101176.28;5033783;28;20033;-67
2023/06/21 00:32:20;;;;;;;5.37;3.60;;;;;;;25.83;51.33;101173.78;5033867;28;20033;-66
2023/06/21 00:34:47;;;;;;;4.88;3.38;;;;;;;25.84;51.50;101175.47;5033646;28;20365;-64
2023/06/21 00:37:13;;;;;;;5.70;3.60;;;;;;;25.83;51.52;101168.44;5033071;28;20528;-66
2023/06/21 00:39:38;;;;;;;5.53;3.25;;;;;;;25.83;51.21;101187.13;5033646;28;20041;-65
2023/06/21 00:42:04;;;;;;;6.18;3.70;;;;;;;25.81;51.36;101186.47;5033293;28;20029;-65
2023/06/21 00:44:29;;;;;;;5.40;3.60;;;;;;;25.81;51.60;101175.78;5033747;28;20043;-66
2023/06/21 00:46:55;;;;;;;5.80;3.40;;;;;;;25.81;51.42;101181.97;5033249;28;20040;-66
2023/06/21 00:49:20;;;;;;;6.15;3.90;;;;;;;25.82;51.42;101185.44;5032180;28;20779;-65
2023/06/21 00:51:46;;;;;;;5.22;3.40;;;;;;;25.81;51.54;101186.47;5032937;28;20029;-66
2023/06/21 00:54:16;;;;;;;5.43;3.45;;;;;;;25.80;51.52;101179.47;5033587;28;20029;-65
2023/06/21 00:56:42;;;;;;;5.50;3.83;;;;;;;25.79;51.42;101175.97;5033308;28;20043;-63
2023/06/21 00:59:09;;;;;;;5.43;3.63;;;;;;;25.82;51.26;101190.78;5032994;28;20108;-66
2023/06/21 01:01:36;;;;;;;6.38;4.28;;;;;;;25.79;51.30;101188.50;5032985;28;20056;-66
2023/06/21 01:04:02;;;;;;;5.88;3.38;;;;;;;25.78;51.62;101184.13;5032989;28;20061;-66
2023/06/21 01:06:48;;;;;;;4.95;3.28;;;;;;;25.78;51.59;101190.31;5032743;28;20067;-65
2023/06/21 01:09:21;;;;;;;5.18;3.63;;;;;;;25.79;51.35;101193.81;5032368;28;20040;-67
2023/06/21 01:12:07;;;;;;;5.65;3.70;;;;;;;25.78;51.24;101202.81;5031392;28;20049;-67
2023/06/21 01:15:02;;;;;;;5.43;3.80;;;;;;;25.75;51.37;101185.28;5032674;28;20043;-66
2023/06/21 01:17:31;;;;;;;5.65;4.05;;;;;;;25.78;51.25;101189.47;5031895;28;20452;-64
2023/06/21 01:19:57;;;;;;;5.20;3.55;;;;;;;25.78;51.15;101181.47;5032749;28;20432;-64
2023/06/21 01:22:35;;;;;;;5.38;3.90;;;;;;;25.74;51.21;101180.97;5032505;28;20029;-66
2023/06/21 01:25:08;;;;;;;6.03;3.90;;;;;;;25.74;51.09;101188.97;5032575;28;20547;-65
2023/06/21 01:27:53;;;;;;;6.40;3.87;;;;;;;25.76;51.33;101199.50;5032312;28;20095;-65
2023/06/21 01:30:20;;;;;;;5.30;4.20;;;;;;;25.76;51.39;101200.31;5032211;28;20124;-66
2023/06/21 01:32:48;;;;;;;6.30;4.00;;;;;;;25.76;51.36;101204.84;5032388;28;20107;-66
2023/06/21 01:35:14;;;;;;;5.78;3.70;;;;;;;25.76;51.35;101199.50;5031521;28;20029;-67
2023/06/21 01:37:42;;;;;;;5.65;3.60;;;;;;;25.74;51.01;101199.66;5031818;28;20885;-67
2023/06/21 01:40:11;;;;;;;7.13;3.75;;;;;;;25.73;51.31;101206.00;5031756;28;20043;-67
2023/06/21 01:42:37;;;;;;;5.57;4.00;;;;;;;25.70;51.29;101207.16;5032274;28;20029;-65
2023/06/21 01:45:03;;;;;;;5.75;3.70;;;;;;;25.73;51.34;101216.66;5031568;28;20048;-67
2023/06/21 01:47:28;;;;;;;5.25;3.80;;;;;;;25.74;51.30;101205.00;5032100;28;20048;-66
2023/06/21 01:49:54;;;;;;;6.10;4.00;;;;;;;25.73;51.08;101199.81;5032212;28;20033;-66
2023/06/21 01:52:20;;;;;;;5.32;3.50;;;;;;;25.73;51.53;101205.16;5031749;28;20381;-66
2023/06/21 01:54:45;;;;;;;5.75;3.80;;;;;;;25.73;51.16;101207.84;5031721;28;20037;-63
2023/06/21 01:57:14;;;;;;;5.80;3.80;;;;;;;25.71;51.07;101214.16;5031092;28;20034;-66
2023/06/21 01:59:41;;;;;;;5.18;3.80;;;;;;;25.71;51.07;101222.16;5032405;28;20029;-67
2023/06/21 02:02:08;;;;;;;6.10;4.00;;;;;;;25.70;51.01;101211.66;5031889;28;20047;-65
2023/06/21 02:04:35;;;;;;;6.05;3.90;;;;;;;25.71;51.12;101219.50;5031962;28;20029;-65
2023/06/21 02:07:02;;;;;;;6.65;3.65;;;;;;;25.71;51.07;101224.84;5031835;28;20034;-67
2023/06/21 02:09:30;;;;;;;5.20;3.42;;;;;;;25.70;51.08;101225.81;5031306;28;20087;-66
2023/06/21 02:11:56;;;;;;;6.13;4.03;;;;;;;25.70;51.13;101219.66;5031562;28;20043;-67
2023/06/21 02:14:21;;;;;;;5.40;3.95;;;;;;;25.69;50.95;101221.50;5031387;28;20036;-66
2023/06/21 02:16:48;;;;;;;5.72;3.83;;;;;;;25.68;50.99;101230.50;5031512;28;20061;-65
2023/06/21 02:19:13;;;;;;;5.40;3.78;;;;;;;25.70;51.03;101227.69;5031025;28;20049;-64
2023/06/21 02:21:39;;;;;;;5.82;3.60;;;;;;;25.69;50.90;101234.00;5031570;28;20041;-65
2023/06/21 02:24:04;;;;;;;6.28;3.90;;;;;;;25.68;50.96;101246.53;5031256;28;20111;-66
2023/06/21 02:26:30;;;;;;;5.85;3.90;;;;;;;25.67;50.90;101247.50;5031479;28;20049;-65
2023/06/21 02:28:55;;;;;;;5.88;3.92;;;;;;;25.67;50.95;101244.84;5031810;28;20038;-65
2023/06/21 02:31:20;;;;;;;4.90;3.65;;;;;;;25.67;50.90;101242.16;5031305;28;20045;-66
2023/06/21 02:33:46;;;;;;;6.43;4.07;;;;;;;25.66;50.68;101240.53;5031213;28;20028;-66
2023/06/21 02:36:11;;;;;;;6.35;4.00;;;;;;;25.67;50.60;101262.69;5031240;28;20425;-67
2023/06/21 02:38:37;;;;;;;5.70;3.78;;;;;;;25.66;50.74;101264.53;5031014;28;20098;-66
2023/06/21 02:41:02;;;;;;;6.13;3.63;;;;;;;25.67;50.97;101254.69;5031163;28;20043;-66
2023/06/21 02:43:28;;;;;;;5.95;3.78;;;;;;;25.66;50.81;101259.19;5029769;28;20626;-67
2023/06/21 02:45:53;;;;;;;5.95;4.18;;;;;;;25.65;50.61;101257.53;5031862;28;20457;-67
2023/06/21 02:48:18;;;;;;;6.75;4.07;;;;;;;25.65;50.79;101262.84;5031234;28;20528;-66
2023/06/21 02:50:43;;;;;;;8.90;4.17;;;;;;;25.66;50.93;101261.88;5030842;28;20045;-67
2023/06/21 02:53:09;;;;;;;5.83;3.80;;;;;;;25.66;50.69;101275.22;5029199;28;20461;-65
2023/06/21 02:55:34;;;;;;;6.13;4.30;;;;;;;25.65;50.15;101276.22;5030432;28;20312;-66
2023/06/21 02:57:59;;;;;;;6.57;4.00;;;;;;;25.65;50.65;101268.19;5030379;28;20844;-64
2023/06/21 03:00:31;;;;;;;7.07;4.20;;;;;;;25.66;50.71;101285.03;5030378;28;20266;-65
2023/06/21 03:03:03;;;;;;;6.18;4.00;;;;;;;25.65;50.69;101286.06;5031047;28;20277;-65
2023/06/21 03:05:33;;;;;;;5.97;4.05;;;;;;;25.63;50.71;101290.72;5030617;28;20037;-65
2023/06/21 03:08:00;;;;;;;5.45;3.80;;;;;;;25.64;50.49;101300.38;5030734;28;20106;-64
2023/06/21 03:10:26;;;;;;;5.88;4.30;;;;;;;25.62;50.69;101303.22;5030505;28;20041;-66
2023/06/21 03:12:51;;;;;;;5.43;4.07;;;;;;;25.61;50.48;101300.72;5031434;28;20030;-64
2023/06/21 03:15:17;;;;;;;5.63;4.05;;;;;;;25.63;50.58;101307.56;5030326;28;20083;-64
2023/06/21 03:17:42;;;;;;;5.87;3.90;;;;;;;25.62;50.84;101310.41;5030183;28;20052;-64
2023/06/21 03:20:11;;;;;;;6.60;3.72;;;;;;;25.63;50.83;101318.25;5030461;28;20769;-66
2023/06/21 03:22:36;;;;;;;5.50;4.00;;;;;;;25.64;50.73;101324.41;5030266;28;20037;-65
2023/06/21 03:25:01;;;;;;;7.27;3.70;;;;;;;25.62;50.51;101321.91;5030660;28;20079;-65
2023/06/21 03:27:28;;;;;;;6.00;4.05;;;;;;;25.60;50.61;101323.91;5030021;28;20773;-66
2023/06/21 03:29:53;;;;;;;5.43;3.90;;;;;;;25.62;50.88;101321.06;5031258;28;20030;-65
2023/06/21 03:32:19;;;;;;;6.60;4.63;;;;;;;25.60;51.02;101315.06;5030594;28;20029;-66
2023/06/21 03:34:45;;;;;;;6.13;4.28;;;;;;;25.59;50.33;101322.22;5029839;28;20033;-66
2023/06/21 03:37:10;;;;;;;5.50;3.63;;;;;;;25.60;50.81;101320.41;5030606;28;20128;-64
2023/06/21 03:39:36;;;;;;;5.77;3.90;;;;;;;25.62;50.84;101318.41;5031065;28;20466;-65
2023/06/21 03:42:01;;;;;;;5.28;3.45;;;;;;;25.58;50.65;101312.56;5030794;28;20262;-66
2023/06/21 03:44:26;;;;;;;6.03;3.83;;;;;;;25.60;50.63;101317.75;5031013;28;20140;-66
2023/06/21 03:46:51;;;;;;;6.90;3.80;;;;;;;25.60;50.83;101312.41;5030853;28;20262;-66
2023/06/21 03:49:21;;;;;;;5.50;3.92;;;;;;;25.58;50.72;101306.38;5030689;28;20469;-65
2023/06/21 03:51:46;;;;;;;6.03;4.13;;;;;;;25.58;50.61;101311.72;5030626;28;20035;-66
2023/06/21 03:54:12;;;;;;;6.27;4.03;;;;;;;25.60;50.87;101321.25;5030538;28;20034;-65
2023/06/21 03:56:38;;;;;;;5.47;3.90;;;;;;;25.57;50.93;101321.56;5031124;28;20274;-65
2023/06/21 03:59:03;;;;;;;6.15;3.83;;;;;;;25.57;50.98;101318.91;5030963;28;20029;-65
2023/06/21 04:01:28;;;;;;;5.87;3.83;;;;;;;25.57;50.90;101320.75;5030685;28;20567;-66
2023/06/21 04:03:53;;;;;;;6.60;4.30;;;;;;;25.57;50.71;101334.91;5032616;28;20270;-65
2023/06/21 04:06:19;;;;;;;5.70;3.85;;;;;;;25.57;50.84;101334.09;5034114;28;20541;-65
2023/06/21 04:08:44;;;;;;;5.77;3.90;;;;;;;25.58;50.77;101339.25;5033142;28;20094;-67
2023/06/21 04:11:09;;;;;;;6.07;4.20;;;;;;;25.56;50.85;101337.72;5033724;28;20281;-65
2023/06/21 04:13:35;;;;;;;6.77;4.00;;;;;;;25.57;50.54;101347.41;5034647;28;20265;-65
2023/06/21 04:16:01;;;;;;;7.25;4.32;;;;;;;25.55;50.63;101349.41;5033599;28;20266;-65
2023/06/21 04:18:26;;;;;;;5.40;3.60;;;;;;;25.57;50.74;101355.44;5033306;28;20448;-64
2023/06/21 04:20:51;;;;;;;5.77;4.20;;;;;;;25.56;51.09;101357.25;5033867;28;20096;-65
2023/06/21 04:23:16;;;;;;;5.97;3.93;;;;;;;25.57;50.90;101364.25;5033558;28;20298;-66
2023/06/21 04:25:41;;;;;;;5.63;3.90;;;;;;;25.56;50.74;101373.25;5033582;28;20041;-66
2023/06/21 04:28:10;;;;;;;5.80;4.03;;;;;;;25.57;50.93;101368.78;5033626;28;20124;-67
2023/06/21 04:30:35;;;;;;;5.70;3.95;;;;;;;25.53;50.59;101366.41;5033357;28;20299;-65
2023/06/21 04:33:01;;;;;;;6.53;4.25;;;;;;;25.56;51.04;101375.91;5032930;28;20106;-66
2023/06/21 04:35:26;;;;;;;5.60;3.90;;;;;;;25.53;50.74;101379.75;5033372;28;20439;-66
2023/06/21 04:37:52;;;;;;;6.32;4.20;;;;;;;25.55;50.98;101371.59;5033740;28;20053;-66
2023/06/21 04:40:18;;;;;;;5.72;3.90;;;;;;;25.54;50.86;101383.25;5033306;28;20051;-66
2023/06/21 04:42:54;;;;;;;6.88;4.47;;;;;;;25.52;50.82;101387.94;5033432;28;20073;-65
2023/06/21 04:45:19;;;;;;;6.82;4.60;;;;;;;25.56;51.01;101385.78;5034119;28;20037;-66
2023/06/21 04:47:48;;;;;;;6.55;4.03;;;;;;;25.53;50.80;101378.91;5032773;28;20028;-67
2023/06/21 04:50:16;;;;;;;5.50;3.88;;;;;;;25.51;51.00;101372.91;5033020;28;20040;-65
2023/06/21 04:52:48;;;;;;;6.88;4.43;;;;;;;25.52;50.87;101375.41;5032976;28;20368;-68
2023/06/21 04:55:17;;;;;;;5.82;4.18;;;;;;;25.54;50.58;101372.59;5032993;28;20108;-65
2023/06/21 04:57:43;;;;;;;6.55;4.57;;;;;;;25.53;50.96;101366.41;5033022;28;20030;-66
2023/06/21 05:00:09;;;;;;;6.63;4.38;;;;;;;25.53;51.11;101374.44;5033129;28;20508;-65
2023/06/21 05:02:34;;;;;;;5.93;4.10;;;;;;;25.53;51.04;101384.25;5032849;28;20522;-66
2023/06/21 05:04:59;;;;;;;6.05;4.25;;;;;;;25.54;51.00;101391.25;5033368;28;20481;-66
2023/06/21 05:07:25;;;;;;;6.33;4.00;;;;;;;25.52;51.12;101383.41;5032303;28;20458;-65
2023/06/21 05:09:50;;;;;;;6.32;4.32;;;;;;;25.53;51.32;101401.13;5033113;28;20025;-67
2023/06/21 05:12:15;;;;;;;5.47;4.00;;;;;;;25.55;51.27;101400.09;5032723;28;20466;-65
2023/06/21 05:14:40;;;;;;;6.45;4.18;;;;;;;25.54;51.17;101401.94;5031671;28;20255;-66
2023/06/21 05:17:06;;;;;;;5.70;4.18;;;;;;;25.54;51.26;101401.94;5032287;28;20057;-66
2023/06/21 05:19:31;;;;;;;6.65;4.22;;;;;;;25.53;51.08;101400.25;5032733;28;20029;-66
2023/06/21 05:21:56;;;;;;;5.90;4.40;;;;;;;25.54;50.78;101412.63;5032385;28;20040;-65
2023/06/21 05:24:22;;;;;;;7.18;4.22;;;;;;;25.53;51.08;101409.13;5032659;28;20266;-65
2023/06/21 05:26:47;;;;;;;7.32;4.15;;;;;;;25.53;51.33;101418.94;5032298;28;20034;-65
2023/06/21 05:29:13;;;;;;;6.23;4.50;;;;;;;25.53;51.46;101425.13;5032710;28;20623;-65
2023/06/21 05:31:42;;;;;;;6.03;4.50;;;;;;;25.52;51.28;101426.13;5032113;28;20324;-65
2023/06/21 05:34:07;;;;;;;6.28;4.70;;;;;;;25.54;51.36;101417.94;5031173;28;21114;-67
2023/06/21 05:36:32;;;;;;;6.60;4.77;;;;;;;25.53;51.40;101419.78;5032340;28;20029;-66
2023/06/21 05:38:58;;;;;;;5.53;4.07;;;;;;;25.53;51.33;101418.94;5032024;28;20270;-66
2023/06/21 05:41:23;;;;;;;5.73;4.23;;;;;;;25.52;51.27;101418.09;5031965;28;20128;-68
2023/06/21 05:43:48;;;;;;;5.47;4.07;;;;;;;25.52;51.45;101422.63;5032298;28;20282;-65
2023/06/21 05:46:13;;;;;;;7.27;4.67;;;;;;;25.51;51.19;101424.44;5032297;28;20047;-65
2023/06/21 05:48:39;;;;;;;7.63;4.47;;;;;;;25.54;51.25;101436.63;5032121;28;20316;-66
2023/06/21 05:51:04;;;;;;;5.57;4.30;;;;;;;25.53;51.77;101435.81;5031606;28;20041;-66
2023/06/21 05:53:29;;;;;;;6.80;4.87;;;;;;;25.52;51.29;101433.28;5032271;28;20623;-65
2023/06/21 05:55:56;;;;;;;6.20;4.88;;;;;;;25.51;51.22;101443.09;5031878;28;20251;-66
2023/06/21 05:58:22;;;;;;;5.90;4.22;;;;;;;25.54;51.64;101447.31;5031997;28;20040;-67
2023/06/21 06:00:47;;;;;;;5.85;4.30;;;;;;;25.54;51.54;101449.97;5031940;28;20033;-67
2023/06/21 06:03:12;;;;;;;6.50;4.50;;;;;;;25.52;51.54;101455.47;5031914;28;20829;-65
2023/06/21 06:05:37;;;;;;;7.17;5.77;;;;;;;25.50;52.18;101457.47;5031668;28;20037;-65
2023/06/21 06:08:03;;;;;;;12.32;9.55;;;;;;;25.39;54.99;101459.56;5031271;28;20439;-66
2023/06/21 06:10:28;;;;;;;12.07;10.30;;;;;;;25.29;55.73;101468.53;5031493;28;20041;-67
2023/06/21 06:12:53;;;;;;;13.95;11.00;;;;;;;25.16;56.08;101460.06;5031756;28;20036;-65
2023/06/21 06:15:19;;;;;;;16.23;11.33;;;;;;;25.02;56.98;101457.97;5031569;28;20936;-66
2023/06/21 06:17:46;;;;;;;13.10;10.83;;;;;;;24.88;57.29;101462.00;5030979;28;20274;-66
2023/06/21 06:20:12;;;;;;;13.10;10.32;;;;;;;24.76;58.36;101461.44;5031573;28;20505;-68
2023/06/21 06:22:39;;;;;;;12.75;11.27;;;;;;;24.65;58.52;101462.50;5031553;28;20065;-69
2023/06/21 06:25:05;;;;;;;14.68;11.13;;;;;;;24.52;58.66;101470.84;5031646;28;20037;-68
2023/06/21 06:27:31;;;;;;;12.23;10.55;;;;;;;24.45;58.78;101475.13;5030711;28;20122;-68
2023/06/21 06:29:56;;;;;;;13.63;10.65;;;;;;;24.35;58.71;101472.50;5031343;28;20041;-67
2023/06/21 06:32:22;;;;;;;12.57;10.60;;;;;;;24.26;60.01;101482.25;5031386;28;20751;-68
2023/06/21 06:34:47;;;;;;;13.13;10.45;;;;;;;24.21;60.09;101491.66;5031609;28;20025;-66
2023/06/21 06:37:13;;;;;;;12.68;9.75;;;;;;;24.16;58.42;101501.94;5030965;28;20033;-67
2023/06/21 06:39:39;;;;;;;11.52;9.57;;;;;;;24.10;59.62;101498.06;5031899;28;20052;-67
2023/06/21 06:42:04;;;;;;;11.77;9.40;;;;;;;24.03;59.88;101492.47;5031225;28;20069;-68
2023/06/21 06:44:30;;;;;;;13.15;8.85;;;;;;;24.02;59.77;101500.59;5031445;28;20393;-67
2023/06/21 06:46:55;;;;;;;10.23;8.13;;;;;;;24.00;60.11;101511.38;5030939;28;21026;-69
2023/06/21 06:49:20;;;;;;;10.27;7.95;;;;;;;23.98;59.50;101513.38;5030848;28;20041;-69
2023/06/21 06:51:45;;;;;;;11.63;8.20;;;;;;;23.94;60.82;101524.47;5030648;28;20033;-67
2023/06/21 06:54:11;;;;;;;11.55;7.70;;;;;;;23.91;60.75;101528.28;5030574;28;20297;-68
2023/06/21 06:56:36;;;;;;;10.23;7.82;;;;;;;23.84;60.75;101524.50;5030615;28;20037;-68
2023/06/21 06:59:02;;;;;;;10.18;7.13;;;;;;;23.82;60.84;101529.94;5030530;28;20152;-69
2023/06/21 07:01:27;;;;;;;8.65;7.00;;;;;;;23.76;59.99;101527.84;5030368;28;20045;-68
2023/06/21 07:03:53;;;;;;;8.85;7.18;;;;;;;23.72;59.81;101527.31;5030730;28;20029;-69
2023/06/21 07:06:18;;;;;;;9.77;7.13;;;;;;;23.66;60.17;101532.38;5030939;28;20057;-67
2023/06/21 07:08:44;;;;;;;10.00;6.57;;;;;;;23.63;60.76;101535.34;5030428;28;20091;-67
2023/06/21 07:11:10;;;;;;;9.45;6.57;;;;;;;23.62;60.40;101533.66;5031007;28;20393;-67
2023/06/21 07:13:36;;;;;;;9.13;7.00;;;;;;;23.61;60.60;101532.00;5030758;28;20059;-67
2023/06/21 07:16:01;;;;;;;9.32;7.03;;;;;;;23.62;61.10;101530.97;5031151;28;20525;-68
2023/06/21 07:18:26;;;;;;;10.52;8.07;;;;;;;23.64;60.70;101534.34;5030430;28;20048;-68
2023/06/21 07:20:52;;;;;;;10.68;8.68;;;;;;;23.65;60.98;101530.69;5030751;28;20474;-68
2023/06/21 07:23:18;;;;;;;12.32;8.32;;;;;;;23.68;60.13;101535.72;5030000;28;20120;-67
2023/06/21 07:25:43;;;;;;;11.05;9.55;;;;;;;23.65;60.30;101533.34;5030585;28;20147;-68
2023/06/21 07:28:09;;;;;;;13.00;9.77;;;;;;;23.64;61.31;101524.53;5030094;28;20480;-68
2023/06/21 07:30:34;;;;;;;12.48;9.60;;;;;;;23.69;60.39;101527.59;5029632;28;20386;-69
2023/06/21 07:32:59;;;;;;;12.18;9.15;;;;;;;23.70;60.18;101526.63;5030572;28;20458;-66
2023/06/21 07:35:25;;;;;;;11.88;9.93;;;;;;;23.71;61.61;101536.28;5030589;28;20029;-67
2023/06/21 07:37:50;;;;;;;12.47;8.87;;;;;;;23.72;60.58;101527.31;5030957;28;20045;-64
2023/06/21 07:40:15;;;;;;;11.80;8.10;;;;;;;23.76;59.40;101537.66;5034802;28;21242;-65
2023/06/21 07:42:41;;;;;;;10.57;7.05;;;;;;;23.77;58.84;101542.03;5035025;28;20274;-66
2023/06/21 07:45:07;;;;;;;9.88;7.20;;;;;;;23.77;58.39;101537.53;5034815;28;20138;-65
2023/06/21 07:47:32;;;;;;;8.48;6.38;;;;;;;23.69;58.62;101546.22;5030714;28;20120;-66
2023/06/21 07:50:12;;;;;;;8.70;6.70;;;;;;;23.67;58.69;101545.53;5033961;28;20028;-66
2023/06/21 07:52:37;;;;;;;8.43;6.47;;;;;;;23.71;58.76;101549.56;5032267;28;20195;-64
2023/06/21 07:55:05;;;;;;;8.93;7.03;;;;;;;23.74;60.03;101551.13;5033201;28;20644;-65
2023/06/21 07:57:30;;;;;;;9.15;7.45;;;;;;;23.73;59.21;101539.66;5033323;28;20061;-68
2023/06/21 07:59:58;;;;;;;10.75;7.32;;;;;;;23.78;60.58;101549.81;5033515;28;20072;-67
2023/06/21 08:02:24;;;;;;;11.05;7.05;;;;;;;23.81;59.38;101549.53;5034061;28;20032;-67
2023/06/21 08:04:49;;;;;;;11.00;6.73;;;;;;;23.91;59.31;101560.22;5033426;28;20035;-65
2023/06/21 08:07:14;;;;;;;7.78;6.30;;;;;;;23.94;59.02;101559.91;5032767;28;20269;-68
2023/06/21 08:09:40;;;;;;;8.27;5.90;;;;;;;23.97;58.07;101562.25;5031474;28;20041;-67
2023/06/21 08:12:06;;;;;;;12.00;6.60;;;;;;;24.00;57.27;101563.81;5033593;28;20405;-70
2023/06/21 08:14:37;;;;;;;7.45;5.75;;;;;;;24.02;57.10;101565.34;5030917;28;20061;-66
2023/06/21 08:17:11;;;;;;;6.85;5.30;;;;;;;24.10;56.09;101561.97;5038754;28;20462;-68
2023/06/21 08:19:37;;;;;;;7.43;4.90;;;;;;;24.24;56.36;101565.94;5031208;28;20044;-67
2023/06/21 08:22:02;;;;;;;7.23;4.53;;;;;;;24.32;56.30;101573.19;5032680;28;20033;-65
2023/06/21 08:24:27;;;;;;;6.50;3.78;;;;;;;24.40;56.13;101570.63;5032280;28;20385;-68
2023/06/21 08:26:53;;;;;;;6.35;3.95;;;;;;;24.47;55.92;101571.72;5032960;28;20036;-68
2023/06/21 08:29:18;;;;;;;6.70;4.30;;;;;;;24.53;55.97;101571.13;5033309;28;20072;-68
2023/06/21 08:31:43;;;;;;;4.90;3.40;;;;;;;24.61;55.54;101573.06;5032720;28;20309;-68
2023/06/21 08:34:08;;;;;;;6.10;3.92;;;;;;;24.67;55.44;101572.44;5032865;28;20378;-68
2023/06/21 08:36:34;;;;;;;6.17;3.67;;;;;;;24.72;55.52;101574.66;5033472;28;20034;-69
2023/06/21 08:38:59;;;;;;;6.43;3.70;;;;;;;24.77;55.10;101572.41;5033411;28;20267;-69
2023/06/21 08:41:26;;;;;;;5.47;3.60;;;;;;;24.81;55.11;101568.44;5032823;28;20131;-70
2023/06/21 08:43:51;;;;;;;5.75;3.60;;;;;;;24.84;54.99;101569.97;5032284;28;21054;-69
2023/06/21 08:46:18;;;;;;;5.80;3.60;;;;;;;24.90;54.82;101566.69;5033129;28;20025;-70
2023/06/21 08:48:50;;;;;;;5.32;3.38;;;;;;;24.91;54.85;101563.88;5030949;28;20057;-67
2023/06/21 08:51:16;;;;;;;4.68;3.20;;;;;;;24.96;54.77;101569.56;5032124;28;20036;-68
2023/06/21 08:53:46;;;;;;;6.35;3.60;;;;;;;24.99;54.51;101569.28;5032921;28;21225;-68
2023/06/21 08:56:22;;;;;;;4.63;3.08;;;;;;;25.05;54.35;101578.47;5032445;28;20090;-68
2023/06/21 08:59:05;;;;;;;5.28;3.63;;;;;;;25.07;54.33;101575.66;5032678;28;20028;-70
2023/06/21 09:01:44;;;;;;;6.25;3.33;;;;;;;25.12;54.32;101571.56;5032374;28;20404;-69
2023/06/21 09:04:13;;;;;;;5.45;3.53;;;;;;;25.16;54.33;101575.56;5031778;28;20033;-72
2023/06/21 09:06:49;;;;;;;5.65;3.22;;;;;;;25.15;53.98;101573.91;5032012;28;20033;-69
2023/06/21 09:09:18;;;;;;;5.35;3.30;;;;;;;25.20;54.15;101575.25;5031499;28;20064;-68
2023/06/21 09:11:45;;;;;;;5.10;3.00;;;;;;;25.23;53.84;101577.63;5032451;28;20533;-67
2023/06/21 09:14:10;;;;;;;6.15;3.15;;;;;;;25.26;53.75;101575.50;5031966;28;20030;-72
2023/06/21 09:16:37;;;;;;;4.68;3.03;;;;;;;25.28;53.64;101576.22;5032300;28;20456;-74
2023/06/21 09:19:03;;;;;;;7.13;2.88;;;;;;;25.32;53.39;101584.75;5033809;28;20050;-73
2023/06/21 09:21:29;;;;;;;4.50;2.80;;;;;;;25.33;53.50;101587.25;5033104;28;20097;-67
2023/06/21 09:23:54;;;;;;;6.25;2.90;;;;;;;25.36;53.64;101594.13;5031687;28;20029;-72
2023/06/21 09:26:19;;;;;;;4.75;2.85;;;;;;;25.35;53.39;101593.25;5030703;28;20099;-72
2023/06/21 09:28:45;;;;;;;5.60;2.95;;;;;;;25.38;53.46;101593.97;5031871;28;20044;-70
2023/06/21 09:31:10;;;;;;;4.50;2.60;;;;;;;25.43;53.33;101586.31;5032239;28;20064;-69
2023/06/21 09:33:36;;;;;;;5.00;2.90;;;;;;;25.46;53.13;101586.03;5031631;28;20544;-69
2023/06/21 09:36:04;;;;;;;5.78;2.70;;;;;;;25.45;52.80;101597.66;5031981;28;20030;-70
2023/06/21 09:38:33;;;;;;;4.70;2.70;;;;;;;25.48;52.68;101600.03;5031376;28;20029;-69
2023/06/21 09:41:01;;;;;;;5.65;2.60;;;;;;;25.49;52.53;101599.88;5031091;28;20122;-71
2023/06/21 09:43:26;;;;;;;7.63;3.10;;;;;;;25.51;52.76;101602.38;5031515;28;20087;-68
2023/06/21 09:45:58;;;;;;;4.35;2.60;;;;;;;25.49;52.62;101599.06;5031010;28;20037;-69
2023/06/21 09:48:24;;;;;;;4.30;2.60;;;;;;;25.51;52.49;101597.88;5029218;28;20029;-69
2023/06/21 09:50:49;;;;;;;4.53;2.40;;;;;;;25.53;52.71;101597.72;5031351;28;20362;-69
2023/06/21 09:53:21;;;;;;;4.40;2.53;;;;;;;25.53;52.43;101590.59;5031054;28;20404;-70
2023/06/21 09:55:46;;;;;;;4.30;2.55;;;;;;;25.56;52.58;101592.09;5031168;28;20312;-72
2023/06/21 09:58:14;;;;;;;4.80;2.75;;;;;;;25.56;52.25;101594.75;5030871;28;20033;-70
2023/06/21 10:00:40;;;;;;;4.00;2.25;;;;;;;25.60;52.53;101601.47;5031203;28;20041;-71
2023/06/21 10:03:05;;;;;;;5.90;2.20;;;;;;;25.62;52.53;101609.31;5032078;28;20033;-69
2023/06/21 10:05:30;;;;;;;3.97;2.30;;;;;;;25.62;52.41;101606.66;5032321;28;20041;-68
2023/06/21 10:07:56;;;;;;;4.30;2.40;;;;;;;25.61;52.38;101603.16;5029177;28;20037;-68
2023/06/21 10:10:22;;;;;;;3.58;2.05;;;;;;;25.61;52.18;101613.81;5030458;28;20504;-68
2023/06/21 10:12:52;;;;;;;3.88;2.08;;;;;;;25.64;52.10;101620.66;5029642;28;20029;-68
2023/06/21 10:15:20;;;;;;;4.68;2.38;;;;;;;25.62;52.09;101620.00;5032199;28;20037;-69
2023/06/21 10:17:46;;;;;;;4.70;2.22;;;;;;;25.63;52.17;101625.16;5029435;28;20052;-68
2023/06/21 10:20:16;;;;;;;3.92;2.13;;;;;;;25.64;52.17;101624.19;5031044;28;20045;-69
2023/06/21 10:22:51;;;;;;;5.10;3.10;;;;;;;25.66;52.08;101635.53;5029847;28;20065;-70
2023/06/21 10:25:22;;;;;;;4.20;2.30;;;;;;;25.64;52.23;101628.66;5029716;28;20823;-69
2023/06/21 10:27:51;;;;;;;4.32;2.50;;;;;;;25.65;52.22;101641.03;5030796;28;20060;-68
2023/06/21 10:30:20;;;;;;;4.22;2.20;;;;;;;25.68;51.85;101638.88;5031200;28;20462;-66
2023/06/21 10:32:47;;;;;;;4.00;2.15;;;;;;;25.68;52.06;101633.53;5031603;28;20035;-67
2023/06/21 10:35:19;;;;;;;4.20;2.00;;;;;;;25.70;52.12;101647.56;5030559;28;20029;-67
2023/06/21 10:38:01;;;;;;;4.88;2.33;;;;;;;25.71;51.99;101641.25;5031365;28;20033;-72
2023/06/21 10:40:28;;;;;;;3.80;2.08;;;;;;;25.73;51.98;101654.44;5030686;28;20036;-70
2023/06/21 10:42:55;;;;;;;5.05;2.20;;;;;;;25.73;51.82;101646.44;5030376;28;20037;-70
2023/06/21 10:45:21;;;;;;;3.67;2.35;;;;;;;25.71;51.97;101641.25;5031065;28;20108;-70
2023/06/21 10:47:47;;;;;;;5.93;2.50;;;;;;;25.72;51.48;101644.75;5031586;28;20120;-68
2023/06/21 10:50:13;;;;;;;5.57;2.65;;;;;;;25.73;51.79;101649.09;5030332;28;20029;-69
2023/06/21 10:52:39;;;;;;;4.68;2.85;;;;;;;25.72;51.89;101650.06;5031757;28;20033;-68
2023/06/21 10:55:05;;;;;;;6.47;2.40;;;;;;;25.75;51.85;101654.28;5031951;28;20041;-71
2023/06/21 10:57:31;;;;;;;6.15;2.97;;;;;;;25.73;51.88;101649.09;5031096;28;20380;-69
2023/06/21 11:00:06;;;;;;;7.22;2.55;;;;;;;25.72;52.14;101658.09;5031206;28;20072;-69
2023/06/21 11:02:32;;;;;;;6.05;2.75;;;;;;;25.74;52.23;101655.25;5028790;28;20033;-67
2023/06/21 11:05:17;;;;;;;6.95;2.67;;;;;;;25.75;52.28;101656.94;5030629;28;20079;-68
2023/06/21 11:08:01;;;;;;;5.50;2.30;;;;;;;25.73;52.29;101658.94;5029855;28;20093;-69
2023/06/21 11:10:40;;;;;;;5.65;2.65;;;;;;;25.71;52.53;101659.09;5030582;28;20037;-67
2023/06/21 11:13:05;;;;;;;6.28;2.40;;;;;;;25.68;52.23;101652.22;5046606;28;20033;-72
2023/06/21 11:15:32;;;;;;;5.90;2.58;;;;;;;25.73;52.14;101657.09;5033225;28;20040;-67
2023/06/21 11:18:02;;;;;;;4.20;2.30;;;;;;;25.74;52.38;101661.47;5034837;28;20044;-70
2023/06/21 11:20:31;;;;;;;6.00;2.60;;;;;;;25.74;52.35;101661.47;5034468;28;20033;-72
2023/06/21 11:23:07;;;;;;;6.07;2.30;;;;;;;25.75;52.14;101663.13;5033806;28;20034;-70